sensor_id;sensor_type;location;lat;lon;timestamp;P1;durP1;ratioP1;P2;durP2;ratioP2
7398;SDS011;3740;50.700;7.184;2024-01-07T00:01:46;22.73;;;20.23;;
7398;SDS011;3740;50.700;7.184;2024-01-07T00:04:14;24.77;;;20.57;;
7398;SDS011;3740;50.700;7.184;2024-01-07T00:06:40;22.27;;;19.87;;
7398;SDS011;3740;50.700;7.184;2024-01-07T00:09:05;22.90;;;19.37;;
7398;SDS011;3740;50.700;7.184;2024-01-07T00:11:31;20.17;;;18.07;;
7398;SDS011;3740;50.700;7.184;2024-01-07T00:13:57;20.90;;;18.63;;
7398;SDS011;3740;50.700;7.184;2024-01-07T00:16:23;20.93;;;18.33;;
7398;SDS011;3740;50.700;7.184;2024-01-07T00:18:49;21.03;;;18.30;;
7398;SDS011;3740;50.700;7.184;2024-01-07T00:21:14;22.17;;;19.77;;
7398;SDS011;3740;50.700;7.184;2024-01-07T00:23:40;21.90;;;19.17;;
7398;SDS011;3740;50.700;7.184;2024-01-07T00:26:05;21.50;;;18.70;;
7398;SDS011;3740;50.700;7.184;2024-01-07T00:28:32;21.80;;;19.00;;
7398;SDS011;3740;50.700;7.184;2024-01-07T00:30:57;20.73;;;18.53;;
7398;SDS011;3740;50.700;7.184;2024-01-07T00:33:23;25.90;;;19.57;;
7398;SDS011;3740;50.700;7.184;2024-01-07T00:35:48;20.60;;;18.37;;
7398;SDS011;3740;50.700;7.184;2024-01-07T00:38:14;21.23;;;19.03;;
7398;SDS011;3740;50.700;7.184;2024-01-07T00:40:39;20.73;;;18.43;;
7398;SDS011;3740;50.700;7.184;2024-01-07T00:43:05;21.27;;;18.43;;
7398;SDS011;3740;50.700;7.184;2024-01-07T00:45:30;19.77;;;17.63;;
7398;SDS011;3740;50.700;7.184;2024-01-07T00:47:56;21.03;;;18.73;;
7398;SDS011;3740;50.700;7.184;2024-01-07T00:50:22;19.90;;;17.70;;
7398;SDS011;3740;50.700;7.184;2024-01-07T00:52:47;20.43;;;18.10;;
7398;SDS011;3740;50.700;7.184;2024-01-07T00:55:13;19.93;;;17.83;;
7398;SDS011;3740;50.700;7.184;2024-01-07T00:57:38;21.27;;;18.33;;
7398;SDS011;3740;50.700;7.184;2024-01-07T01:00:04;20.07;;;17.77;;
7398;SDS011;3740;50.700;7.184;2024-01-07T01:02:31;21.60;;;18.40;;
7398;SDS011;3740;50.700;7.184;2024-01-07T01:04:56;19.67;;;17.57;;
7398;SDS011;3740;50.700;7.184;2024-01-07T01:07:22;19.50;;;17.50;;
7398;SDS011;3740;50.700;7.184;2024-01-07T01:09:47;20.83;;;18.17;;
7398;SDS011;3740;50.700;7.184;2024-01-07T01:12:13;21.03;;;17.83;;
7398;SDS011;3740;50.700;7.184;2024-01-07T01:14:38;21.63;;;19.00;;
7398;SDS011;3740;50.700;7.184;2024-01-07T01:17:04;20.30;;;17.87;;
7398;SDS011;3740;50.700;7.184;2024-01-07T01:19:29;20.43;;;18.23;;
7398;SDS011;3740;50.700;7.184;2024-01-07T01:21:55;20.53;;;18.33;;
7398;SDS011;3740;50.700;7.184;2024-01-07T01:24:20;21.77;;;17.50;;
7398;SDS011;3740;50.700;7.184;2024-01-07T01:26:46;19.87;;;17.77;;
7398;SDS011;3740;50.700;7.184;2024-01-07T01:29:11;18.73;;;16.83;;
7398;SDS011;3740;50.700;7.184;2024-01-07T01:31:37;19.33;;;16.90;;
7398;SDS011;3740;50.700;7.184;2024-01-07T01:34:02;19.67;;;16.93;;
7398;SDS011;3740;50.700;7.184;2024-01-07T01:36:30;19.40;;;17.33;;
7398;SDS011;3740;50.700;7.184;2024-01-07T01:38:56;18.70;;;16.43;;
7398;SDS011;3740;50.700;7.184;2024-01-07T01:41:21;21.20;;;18.03;;
7398;SDS011;3740;50.700;7.184;2024-01-07T01:43:47;19.37;;;17.13;;
7398;SDS011;3740;50.700;7.184;2024-01-07T01:46:12;18.43;;;16.53;;
7398;SDS011;3740;50.700;7.184;2024-01-07T01:48:39;19.60;;;16.93;;
7398;SDS011;3740;50.700;7.184;2024-01-07T01:51:05;17.20;;;15.37;;
7398;SDS011;3740;50.700;7.184;2024-01-07T01:53:31;17.83;;;15.97;;
7398;SDS011;3740;50.700;7.184;2024-01-07T01:55:58;18.53;;;16.47;;
7398;SDS011;3740;50.700;7.184;2024-01-07T01:58:28;17.90;;;15.93;;
7398;SDS011;3740;50.700;7.184;2024-01-07T02:00:54;17.47;;;15.70;;
7398;SDS011;3740;50.700;7.184;2024-01-07T02:03:20;18.43;;;15.67;;
7398;SDS011;3740;50.700;7.184;2024-01-07T02:05:45;18.20;;;16.20;;
7398;SDS011;3740;50.700;7.184;2024-01-07T02:08:13;16.83;;;14.93;;
7398;SDS011;3740;50.700;7.184;2024-01-07T02:10:39;16.53;;;14.73;;
7398;SDS011;3740;50.700;7.184;2024-01-07T02:13:04;17.60;;;15.13;;
7398;SDS011;3740;50.700;7.184;2024-01-07T02:15:30;16.47;;;14.63;;
7398;SDS011;3740;50.700;7.184;2024-01-07T02:17:56;16.60;;;14.80;;
7398;SDS011;3740;50.700;7.184;2024-01-07T02:20:22;15.47;;;13.63;;
7398;SDS011;3740;50.700;7.184;2024-01-07T02:22:49;16.57;;;14.80;;
7398;SDS011;3740;50.700;7.184;2024-01-07T02:25:14;15.33;;;13.40;;
7398;SDS011;3740;50.700;7.184;2024-01-07T02:27:40;15.23;;;13.57;;
7398;SDS011;3740;50.700;7.184;2024-01-07T02:30:06;15.57;;;13.97;;
7398;SDS011;3740;50.700;7.184;2024-01-07T02:32:32;14.47;;;12.97;;
7398;SDS011;3740;50.700;7.184;2024-01-07T02:34:59;14.97;;;13.27;;
7398;SDS011;3740;50.700;7.184;2024-01-07T02:37:25;14.23;;;12.47;;
7398;SDS011;3740;50.700;7.184;2024-01-07T02:39:51;14.30;;;12.73;;
7398;SDS011;3740;50.700;7.184;2024-01-07T02:42:16;14.40;;;12.87;;
7398;SDS011;3740;50.700;7.184;2024-01-07T02:44:42;13.83;;;12.40;;
7398;SDS011;3740;50.700;7.184;2024-01-07T02:47:07;14.10;;;12.60;;
7398;SDS011;3740;50.700;7.184;2024-01-07T02:49:33;14.03;;;12.53;;
7398;SDS011;3740;50.700;7.184;2024-01-07T02:51:58;13.73;;;12.33;;
7398;SDS011;3740;50.700;7.184;2024-01-07T02:54:24;13.40;;;12.00;;
7398;SDS011;3740;50.700;7.184;2024-01-07T02:56:49;13.43;;;12.03;;
7398;SDS011;3740;50.700;7.184;2024-01-07T02:59:15;14.53;;;13.03;;
7398;SDS011;3740;50.700;7.184;2024-01-07T03:01:41;13.33;;;12.03;;
7398;SDS011;3740;50.700;7.184;2024-01-07T03:04:08;13.33;;;11.97;;
7398;SDS011;3740;50.700;7.184;2024-01-07T03:06:35;13.13;;;11.73;;
7398;SDS011;3740;50.700;7.184;2024-01-07T03:09:00;12.87;;;11.47;;
7398;SDS011;3740;50.700;7.184;2024-01-07T03:11:26;13.60;;;12.20;;
7398;SDS011;3740;50.700;7.184;2024-01-07T03:13:51;13.50;;;12.20;;
7398;SDS011;3740;50.700;7.184;2024-01-07T03:16:23;12.87;;;11.47;;
7398;SDS011;3740;50.700;7.184;2024-01-07T03:18:50;12.90;;;11.30;;
7398;SDS011;3740;50.700;7.184;2024-01-07T03:21:19;12.80;;;11.40;;
7398;SDS011;3740;50.700;7.184;2024-01-07T03:23:46;12.83;;;11.53;;
7398;SDS011;3740;50.700;7.184;2024-01-07T03:26:12;12.33;;;11.03;;
7398;SDS011;3740;50.700;7.184;2024-01-07T03:28:38;13.60;;;12.07;;
7398;SDS011;3740;50.700;7.184;2024-01-07T03:31:18;13.30;;;12.00;;
7398;SDS011;3740;50.700;7.184;2024-01-07T03:33:43;13.60;;;11.37;;
7398;SDS011;3740;50.700;7.184;2024-01-07T03:36:10;14.30;;;12.17;;
7398;SDS011;3740;50.700;7.184;2024-01-07T03:38:36;14.60;;;12.47;;
7398;SDS011;3740;50.700;7.184;2024-01-07T03:41:03;14.67;;;13.13;;
7398;SDS011;3740;50.700;7.184;2024-01-07T03:43:28;13.80;;;12.30;;
7398;SDS011;3740;50.700;7.184;2024-01-07T03:45:54;14.17;;;12.03;;
7398;SDS011;3740;50.700;7.184;2024-01-07T03:48:19;15.30;;;13.67;;
7398;SDS011;3740;50.700;7.184;2024-01-07T03:50:45;14.43;;;12.93;;
7398;SDS011;3740;50.700;7.184;2024-01-07T03:53:11;14.57;;;13.07;;
7398;SDS011;3740;50.700;7.184;2024-01-07T03:55:36;16.07;;;13.53;;
7398;SDS011;3740;50.700;7.184;2024-01-07T03:58:02;16.10;;;14.40;;
7398;SDS011;3740;50.700;7.184;2024-01-07T04:00:28;17.60;;;15.10;;
7398;SDS011;3740;50.700;7.184;2024-01-07T04:02:54;15.80;;;14.20;;
7398;SDS011;3740;50.700;7.184;2024-01-07T04:05:19;17.43;;;15.47;;
7398;SDS011;3740;50.700;7.184;2024-01-07T04:07:45;17.90;;;15.87;;
7398;SDS011;3740;50.700;7.184;2024-01-07T04:10:10;19.30;;;17.00;;
7398;SDS011;3740;50.700;7.184;2024-01-07T04:12:36;19.77;;;17.30;;
7398;SDS011;3740;50.700;7.184;2024-01-07T04:15:02;18.60;;;16.60;;
7398;SDS011;3740;50.700;7.184;2024-01-07T04:17:29;20.40;;;17.67;;
7398;SDS011;3740;50.700;7.184;2024-01-07T04:19:54;20.07;;;17.97;;
7398;SDS011;3740;50.700;7.184;2024-01-07T04:22:20;21.30;;;19.10;;
7398;SDS011;3740;50.700;7.184;2024-01-07T04:24:46;20.53;;;18.17;;
7398;SDS011;3740;50.700;7.184;2024-01-07T04:27:11;20.90;;;18.57;;
7398;SDS011;3740;50.700;7.184;2024-01-07T04:29:37;21.60;;;18.60;;
7398;SDS011;3740;50.700;7.184;2024-01-07T04:32:02;19.47;;;17.27;;
7398;SDS011;3740;50.700;7.184;2024-01-07T04:34:28;21.47;;;18.70;;
7398;SDS011;3740;50.700;7.184;2024-01-07T04:36:53;20.17;;;18.07;;
7398;SDS011;3740;50.700;7.184;2024-01-07T04:39:19;21.23;;;18.57;;
7398;SDS011;3740;50.700;7.184;2024-01-07T04:41:45;21.27;;;18.63;;
7398;SDS011;3740;50.700;7.184;2024-01-07T04:44:10;19.70;;;17.30;;
7398;SDS011;3740;50.700;7.184;2024-01-07T04:46:39;19.20;;;17.20;;
7398;SDS011;3740;50.700;7.184;2024-01-07T04:49:05;19.97;;;17.20;;
7398;SDS011;3740;50.700;7.184;2024-01-07T04:51:31;17.60;;;15.90;;
7398;SDS011;3740;50.700;7.184;2024-01-07T04:53:57;18.33;;;16.37;;
7398;SDS011;3740;50.700;7.184;2024-01-07T04:56:23;19.00;;;17.00;;
7398;SDS011;3740;50.700;7.184;2024-01-07T04:58:49;19.63;;;17.53;;
7398;SDS011;3740;50.700;7.184;2024-01-07T05:01:14;17.63;;;15.83;;
7398;SDS011;3740;50.700;7.184;2024-01-07T05:03:40;17.53;;;15.80;;
7398;SDS011;3740;50.700;7.184;2024-01-07T05:06:07;17.63;;;15.17;;
7398;SDS011;3740;50.700;7.184;2024-01-07T05:08:35;16.77;;;14.97;;
7398;SDS011;3740;50.700;7.184;2024-01-07T05:11:01;17.97;;;16.07;;
7398;SDS011;3740;50.700;7.184;2024-01-07T05:13:26;17.87;;;15.47;;
7398;SDS011;3740;50.700;7.184;2024-01-07T05:15:52;17.73;;;15.93;;
7398;SDS011;3740;50.700;7.184;2024-01-07T05:18:21;15.60;;;14.00;;
7398;SDS011;3740;50.700;7.184;2024-01-07T05:20:50;20.07;;;17.83;;
7398;SDS011;3740;50.700;7.184;2024-01-07T05:23:16;25.43;;;21.80;;
7398;SDS011;3740;50.700;7.184;2024-01-07T05:25:42;19.90;;;17.77;;
7398;SDS011;3740;50.700;7.184;2024-01-07T05:28:08;17.77;;;15.77;;
7398;SDS011;3740;50.700;7.184;2024-01-07T05:30:34;16.03;;;14.40;;
7398;SDS011;3740;50.700;7.184;2024-01-07T05:32:59;16.13;;;14.43;;
7398;SDS011;3740;50.700;7.184;2024-01-07T05:35:25;17.30;;;15.50;;
7398;SDS011;3740;50.700;7.184;2024-01-07T05:37:50;16.13;;;14.43;;
7398;SDS011;3740;50.700;7.184;2024-01-07T05:40:16;14.87;;;13.37;;
7398;SDS011;3740;50.700;7.184;2024-01-07T05:42:41;16.23;;;14.53;;
7398;SDS011;3740;50.700;7.184;2024-01-07T05:45:07;16.57;;;14.83;;
7398;SDS011;3740;50.700;7.184;2024-01-07T05:47:33;16.43;;;13.87;;
7398;SDS011;3740;50.700;7.184;2024-01-07T05:49:58;17.37;;;15.43;;
7398;SDS011;3740;50.700;7.184;2024-01-07T05:52:24;15.30;;;13.70;;
7398;SDS011;3740;50.700;7.184;2024-01-07T05:54:50;16.00;;;14.30;;
7398;SDS011;3740;50.700;7.184;2024-01-07T05:57:15;16.13;;;14.13;;
7398;SDS011;3740;50.700;7.184;2024-01-07T05:59:43;17.43;;;14.80;;
7398;SDS011;3740;50.700;7.184;2024-01-07T06:02:08;16.80;;;15.00;;
7398;SDS011;3740;50.700;7.184;2024-01-07T06:04:34;15.97;;;14.13;;
7398;SDS011;3740;50.700;7.184;2024-01-07T06:06:59;16.73;;;14.47;;
7398;SDS011;3740;50.700;7.184;2024-01-07T06:09:25;17.10;;;15.23;;
7398;SDS011;3740;50.700;7.184;2024-01-07T06:11:51;16.33;;;14.57;;
7398;SDS011;3740;50.700;7.184;2024-01-07T06:14:17;16.20;;;14.50;;
7398;SDS011;3740;50.700;7.184;2024-01-07T06:16:42;17.40;;;15.60;;
7398;SDS011;3740;50.700;7.184;2024-01-07T06:19:08;17.03;;;15.23;;
7398;SDS011;3740;50.700;7.184;2024-01-07T06:21:33;16.43;;;14.73;;
7398;SDS011;3740;50.700;7.184;2024-01-07T06:23:59;16.43;;;14.73;;
7398;SDS011;3740;50.700;7.184;2024-01-07T06:26:24;16.47;;;14.70;;
7398;SDS011;3740;50.700;7.184;2024-01-07T06:28:50;17.00;;;15.17;;
7398;SDS011;3740;50.700;7.184;2024-01-07T06:31:15;16.77;;;15.07;;
7398;SDS011;3740;50.700;7.184;2024-01-07T06:33:41;16.50;;;14.80;;
7398;SDS011;3740;50.700;7.184;2024-01-07T06:36:07;16.70;;;15.00;;
7398;SDS011;3740;50.700;7.184;2024-01-07T06:38:33;18.20;;;16.30;;
7398;SDS011;3740;50.700;7.184;2024-01-07T06:40:59;17.43;;;15.33;;
7398;SDS011;3740;50.700;7.184;2024-01-07T06:43:29;18.17;;;15.53;;
7398;SDS011;3740;50.700;7.184;2024-01-07T06:45:55;18.00;;;16.10;;
7398;SDS011;3740;50.700;7.184;2024-01-07T06:48:21;18.67;;;16.53;;
7398;SDS011;3740;50.700;7.184;2024-01-07T06:50:46;19.13;;;16.73;;
7398;SDS011;3740;50.700;7.184;2024-01-07T06:53:12;18.63;;;16.73;;
7398;SDS011;3740;50.700;7.184;2024-01-07T06:55:37;19.70;;;17.67;;
7398;SDS011;3740;50.700;7.184;2024-01-07T06:58:03;18.37;;;16.33;;
7398;SDS011;3740;50.700;7.184;2024-01-07T07:00:28;18.57;;;16.67;;
7398;SDS011;3740;50.700;7.184;2024-01-07T07:02:54;19.07;;;17.07;;
7398;SDS011;3740;50.700;7.184;2024-01-07T07:05:19;18.83;;;16.53;;
7398;SDS011;3740;50.700;7.184;2024-01-07T07:07:45;19.63;;;17.57;;
7398;SDS011;3740;50.700;7.184;2024-01-07T07:10:10;17.87;;;16.17;;
7398;SDS011;3740;50.700;7.184;2024-01-07T07:12:36;18.57;;;16.67;;
7398;SDS011;3740;50.700;7.184;2024-01-07T07:15:02;19.13;;;17.13;;
7398;SDS011;3740;50.700;7.184;2024-01-07T07:17:27;18.87;;;16.87;;
7398;SDS011;3740;50.700;7.184;2024-01-07T07:19:53;18.07;;;16.23;;
7398;SDS011;3740;50.700;7.184;2024-01-07T07:22:18;19.90;;;17.83;;
7398;SDS011;3740;50.700;7.184;2024-01-07T07:24:44;19.33;;;17.33;;
7398;SDS011;3740;50.700;7.184;2024-01-07T07:27:09;19.33;;;16.97;;
7398;SDS011;3740;50.700;7.184;2024-01-07T07:29:35;19.67;;;17.77;;
7398;SDS011;3740;50.700;7.184;2024-01-07T07:32:00;19.77;;;17.77;;
7398;SDS011;3740;50.700;7.184;2024-01-07T07:34:26;20.90;;;18.50;;
7398;SDS011;3740;50.700;7.184;2024-01-07T07:36:52;19.27;;;17.37;;
7398;SDS011;3740;50.700;7.184;2024-01-07T07:39:17;19.93;;;17.83;;
7398;SDS011;3740;50.700;7.184;2024-01-07T07:41:43;19.80;;;17.80;;
7398;SDS011;3740;50.700;7.184;2024-01-07T07:44:09;20.77;;;18.53;;
7398;SDS011;3740;50.700;7.184;2024-01-07T07:46:34;20.23;;;18.13;;
7398;SDS011;3740;50.700;7.184;2024-01-07T07:49:00;20.97;;;18.80;;
7398;SDS011;3740;50.700;7.184;2024-01-07T07:51:26;20.77;;;18.53;;
7398;SDS011;3740;50.700;7.184;2024-01-07T07:53:52;21.23;;;18.93;;
7398;SDS011;3740;50.700;7.184;2024-01-07T07:56:17;20.70;;;18.50;;
7398;SDS011;3740;50.700;7.184;2024-01-07T07:58:43;20.37;;;18.27;;
7398;SDS011;3740;50.700;7.184;2024-01-07T08:01:08;20.27;;;18.20;;
7398;SDS011;3740;50.700;7.184;2024-01-07T08:03:34;19.77;;;17.67;;
7398;SDS011;3740;50.700;7.184;2024-01-07T08:06:01;20.87;;;18.77;;
7398;SDS011;3740;50.700;7.184;2024-01-07T08:08:27;20.33;;;18.33;;
7398;SDS011;3740;50.700;7.184;2024-01-07T08:10:52;20.87;;;18.63;;
7398;SDS011;3740;50.700;7.184;2024-01-07T08:13:19;20.73;;;18.40;;
7398;SDS011;3740;50.700;7.184;2024-01-07T08:15:44;20.90;;;18.80;;
7398;SDS011;3740;50.700;7.184;2024-01-07T08:18:10;22.03;;;19.67;;
7398;SDS011;3740;50.700;7.184;2024-01-07T08:20:35;23.07;;;20.57;;
7398;SDS011;3740;50.700;7.184;2024-01-07T08:23:01;20.97;;;18.77;;
7398;SDS011;3740;50.700;7.184;2024-01-07T08:25:27;20.03;;;17.97;;
7398;SDS011;3740;50.700;7.184;2024-01-07T08:27:52;19.53;;;17.50;;
7398;SDS011;3740;50.700;7.184;2024-01-07T08:30:18;20.70;;;18.40;;
7398;SDS011;3740;50.700;7.184;2024-01-07T08:32:43;20.87;;;18.67;;
7398;SDS011;3740;50.700;7.184;2024-01-07T08:35:09;20.27;;;18.17;;
7398;SDS011;3740;50.700;7.184;2024-01-07T08:37:35;20.07;;;17.97;;
7398;SDS011;3740;50.700;7.184;2024-01-07T08:40:00;20.07;;;17.57;;
7398;SDS011;3740;50.700;7.184;2024-01-07T08:42:26;21.63;;;19.63;;
7398;SDS011;3740;50.700;7.184;2024-01-07T08:44:52;21.27;;;19.10;;
7398;SDS011;3740;50.700;7.184;2024-01-07T08:47:17;20.37;;;18.33;;
7398;SDS011;3740;50.700;7.184;2024-01-07T08:49:43;20.27;;;18.23;;
7398;SDS011;3740;50.700;7.184;2024-01-07T08:52:08;19.80;;;17.90;;
7398;SDS011;3740;50.700;7.184;2024-01-07T08:54:34;20.27;;;18.17;;
7398;SDS011;3740;50.700;7.184;2024-01-07T08:57:00;20.20;;;17.93;;
7398;SDS011;3740;50.700;7.184;2024-01-07T08:59:25;19.27;;;16.97;;
7398;SDS011;3740;50.700;7.184;2024-01-07T09:01:51;19.27;;;17.27;;
7398;SDS011;3740;50.700;7.184;2024-01-07T09:04:16;18.77;;;16.90;;
7398;SDS011;3740;50.700;7.184;2024-01-07T09:06:43;18.13;;;16.20;;
7398;SDS011;3740;50.700;7.184;2024-01-07T09:09:09;17.60;;;15.90;;
7398;SDS011;3740;50.700;7.184;2024-01-07T09:11:34;18.20;;;16.33;;
7398;SDS011;3740;50.700;7.184;2024-01-07T09:14:01;17.70;;;15.90;;
7398;SDS011;3740;50.700;7.184;2024-01-07T09:16:28;17.97;;;16.07;;
7398;SDS011;3740;50.700;7.184;2024-01-07T09:18:54;17.77;;;15.97;;
7398;SDS011;3740;50.700;7.184;2024-01-07T09:21:19;18.80;;;16.80;;
7398;SDS011;3740;50.700;7.184;2024-01-07T09:23:45;18.23;;;16.43;;
7398;SDS011;3740;50.700;7.184;2024-01-07T09:26:10;17.07;;;15.33;;
7398;SDS011;3740;50.700;7.184;2024-01-07T09:28:36;17.80;;;16.00;;
7398;SDS011;3740;50.700;7.184;2024-01-07T09:31:02;17.67;;;15.87;;
7398;SDS011;3740;50.700;7.184;2024-01-07T09:33:27;16.93;;;15.23;;
7398;SDS011;3740;50.700;7.184;2024-01-07T09:35:53;17.07;;;15.37;;
7398;SDS011;3740;50.700;7.184;2024-01-07T09:38:21;16.87;;;15.17;;
7398;SDS011;3740;50.700;7.184;2024-01-07T09:40:49;17.13;;;15.30;;
7398;SDS011;3740;50.700;7.184;2024-01-07T09:43:15;16.97;;;15.23;;
7398;SDS011;3740;50.700;7.184;2024-01-07T09:45:41;18.27;;;16.40;;
7398;SDS011;3740;50.700;7.184;2024-01-07T09:48:10;17.00;;;15.30;;
7398;SDS011;3740;50.700;7.184;2024-01-07T09:50:36;17.13;;;15.43;;
7398;SDS011;3740;50.700;7.184;2024-01-07T09:53:02;18.17;;;16.27;;
7398;SDS011;3740;50.700;7.184;2024-01-07T09:55:40;16.77;;;15.07;;
7398;SDS011;3740;50.700;7.184;2024-01-07T09:58:15;16.40;;;14.77;;
7398;SDS011;3740;50.700;7.184;2024-01-07T10:00:41;17.53;;;15.73;;
7398;SDS011;3740;50.700;7.184;2024-01-07T10:03:07;17.77;;;16.03;;
7398;SDS011;3740;50.700;7.184;2024-01-07T10:05:32;16.93;;;15.23;;
7398;SDS011;3740;50.700;7.184;2024-01-07T10:07:58;17.03;;;15.33;;
7398;SDS011;3740;50.700;7.184;2024-01-07T10:10:23;17.93;;;16.27;;
7398;SDS011;3740;50.700;7.184;2024-01-07T10:12:49;17.90;;;16.10;;
7398;SDS011;3740;50.700;7.184;2024-01-07T10:15:18;17.70;;;15.77;;
7398;SDS011;3740;50.700;7.184;2024-01-07T10:17:44;17.17;;;15.37;;
7398;SDS011;3740;50.700;7.184;2024-01-07T10:20:10;16.60;;;14.90;;
7398;SDS011;3740;50.700;7.184;2024-01-07T10:22:36;17.70;;;15.80;;
7398;SDS011;3740;50.700;7.184;2024-01-07T10:25:05;17.13;;;15.43;;
7398;SDS011;3740;50.700;7.184;2024-01-07T10:27:37;16.80;;;15.00;;
7398;SDS011;3740;50.700;7.184;2024-01-07T10:30:03;18.20;;;16.37;;
7398;SDS011;3740;50.700;7.184;2024-01-07T10:32:29;18.30;;;16.40;;
7398;SDS011;3740;50.700;7.184;2024-01-07T10:34:57;18.10;;;16.30;;
7398;SDS011;3740;50.700;7.184;2024-01-07T10:37:28;17.27;;;15.47;;
7398;SDS011;3740;50.700;7.184;2024-01-07T10:39:55;18.90;;;17.00;;
7398;SDS011;3740;50.700;7.184;2024-01-07T10:42:26;18.20;;;16.40;;
7398;SDS011;3740;50.700;7.184;2024-01-07T10:44:52;18.13;;;16.33;;
7398;SDS011;3740;50.700;7.184;2024-01-07T10:47:17;24.30;;;21.97;;
7398;SDS011;3740;50.700;7.184;2024-01-07T10:49:45;20.20;;;18.10;;
7398;SDS011;3740;50.700;7.184;2024-01-07T10:52:15;23.77;;;21.43;;
7398;SDS011;3740;50.700;7.184;2024-01-07T10:54:42;20.33;;;18.23;;
7398;SDS011;3740;50.700;7.184;2024-01-07T10:59:49;19.37;;;17.30;;
7398;SDS011;3740;50.700;7.184;2024-01-07T11:02:16;20.07;;;17.97;;
7398;SDS011;3740;50.700;7.184;2024-01-07T11:04:50;19.03;;;17.10;;
7398;SDS011;3740;50.700;7.184;2024-01-07T11:10:09;19.33;;;17.37;;
7398;SDS011;3740;50.700;7.184;2024-01-07T11:12:35;20.33;;;18.17;;
7398;SDS011;3740;50.700;7.184;2024-01-07T11:15:01;18.83;;;17.00;;
7398;SDS011;3740;50.700;7.184;2024-01-07T11:20:02;20.73;;;18.63;;
7398;SDS011;3740;50.700;7.184;2024-01-07T11:22:30;19.53;;;17.63;;
7398;SDS011;3740;50.700;7.184;2024-01-07T11:24:58;17.27;;;15.50;;
7398;SDS011;3740;50.700;7.184;2024-01-07T11:27:25;18.83;;;17.03;;
7398;SDS011;3740;50.700;7.184;2024-01-07T11:29:56;17.03;;;15.33;;
7398;SDS011;3740;50.700;7.184;2024-01-07T11:32:23;16.57;;;14.97;;
7398;SDS011;3740;50.700;7.184;2024-01-07T11:34:53;17.13;;;15.43;;
7398;SDS011;3740;50.700;7.184;2024-01-07T11:37:19;17.47;;;15.77;;
7398;SDS011;3740;50.700;7.184;2024-01-07T11:39:46;16.97;;;15.27;;
7398;SDS011;3740;50.700;7.184;2024-01-07T11:42:12;15.60;;;14.20;;
7398;SDS011;3740;50.700;7.184;2024-01-07T11:44:45;15.67;;;14.17;;
7398;SDS011;3740;50.700;7.184;2024-01-07T11:47:16;14.27;;;12.97;;
7398;SDS011;3740;50.700;7.184;2024-01-07T11:49:43;15.40;;;13.97;;
7398;SDS011;3740;50.700;7.184;2024-01-07T11:52:09;15.10;;;13.70;;
7398;SDS011;3740;50.700;7.184;2024-01-07T11:54:36;15.80;;;14.30;;
7398;SDS011;3740;50.700;7.184;2024-01-07T11:57:05;16.67;;;15.07;;
7398;SDS011;3740;50.700;7.184;2024-01-07T11:59:32;13.93;;;12.63;;
7398;SDS011;3740;50.700;7.184;2024-01-07T12:02:01;15.53;;;14.03;;
7398;SDS011;3740;50.700;7.184;2024-01-07T12:04:29;14.57;;;13.17;;
7398;SDS011;3740;50.700;7.184;2024-01-07T12:06:58;14.83;;;13.30;;
7398;SDS011;3740;50.700;7.184;2024-01-07T12:09:25;15.80;;;14.23;;
7398;SDS011;3740;50.700;7.184;2024-01-07T12:11:51;14.77;;;13.47;;
7398;SDS011;3740;50.700;7.184;2024-01-07T12:14:17;13.93;;;12.73;;
7398;SDS011;3740;50.700;7.184;2024-01-07T12:16:44;14.87;;;13.50;;
7398;SDS011;3740;50.700;7.184;2024-01-07T12:19:10;14.47;;;13.17;;
7398;SDS011;3740;50.700;7.184;2024-01-07T12:21:36;15.03;;;13.63;;
7398;SDS011;3740;50.700;7.184;2024-01-07T12:24:02;15.50;;;14.03;;
7398;SDS011;3740;50.700;7.184;2024-01-07T12:26:29;15.30;;;13.80;;
7398;SDS011;3740;50.700;7.184;2024-01-07T12:28:57;15.60;;;14.20;;
7398;SDS011;3740;50.700;7.184;2024-01-07T12:31:30;16.03;;;14.53;;
7398;SDS011;3740;50.700;7.184;2024-01-07T12:33:56;16.40;;;14.80;;
7398;SDS011;3740;50.700;7.184;2024-01-07T12:36:22;14.90;;;13.53;;
7398;SDS011;3740;50.700;7.184;2024-01-07T12:38:48;16.47;;;14.97;;
7398;SDS011;3740;50.700;7.184;2024-01-07T12:41:16;15.87;;;14.37;;
7398;SDS011;3740;50.700;7.184;2024-01-07T12:43:42;16.63;;;15.03;;
7398;SDS011;3740;50.700;7.184;2024-01-07T12:46:08;18.33;;;16.53;;
7398;SDS011;3740;50.700;7.184;2024-01-07T12:48:33;16.73;;;15.07;;
7398;SDS011;3740;50.700;7.184;2024-01-07T12:50:59;16.97;;;15.27;;
7398;SDS011;3740;50.700;7.184;2024-01-07T12:53:26;16.93;;;15.33;;
7398;SDS011;3740;50.700;7.184;2024-01-07T12:55:52;16.10;;;14.60;;
7398;SDS011;3740;50.700;7.184;2024-01-07T12:58:18;16.27;;;14.77;;
7398;SDS011;3740;50.700;7.184;2024-01-07T13:00:43;17.87;;;16.07;;
7398;SDS011;3740;50.700;7.184;2024-01-07T13:03:09;16.47;;;14.97;;
7398;SDS011;3740;50.700;7.184;2024-01-07T13:05:44;15.77;;;14.20;;
7398;SDS011;3740;50.700;7.184;2024-01-07T13:08:17;15.13;;;13.70;;
7398;SDS011;3740;50.700;7.184;2024-01-07T13:10:44;15.27;;;13.87;;
7398;SDS011;3740;50.700;7.184;2024-01-07T13:13:10;14.43;;;13.13;;
7398;SDS011;3740;50.700;7.184;2024-01-07T13:15:37;15.53;;;14.03;;
7398;SDS011;3740;50.700;7.184;2024-01-07T13:18:03;15.17;;;13.77;;
7398;SDS011;3740;50.700;7.184;2024-01-07T13:20:29;14.30;;;12.97;;
7398;SDS011;3740;50.700;7.184;2024-01-07T13:22:54;14.23;;;12.93;;
7398;SDS011;3740;50.700;7.184;2024-01-07T13:25:20;14.67;;;13.27;;
7398;SDS011;3740;50.700;7.184;2024-01-07T13:27:46;14.63;;;13.17;;
7398;SDS011;3740;50.700;7.184;2024-01-07T13:30:11;13.97;;;12.77;;
7398;SDS011;3740;50.700;7.184;2024-01-07T13:32:37;13.70;;;12.40;;
7398;SDS011;3740;50.700;7.184;2024-01-07T13:35:03;12.87;;;11.57;;
7398;SDS011;3740;50.700;7.184;2024-01-07T13:37:29;13.10;;;11.90;;
7398;SDS011;3740;50.700;7.184;2024-01-07T13:39:58;13.27;;;12.07;;
7398;SDS011;3740;50.700;7.184;2024-01-07T13:42:23;12.23;;;11.03;;
7398;SDS011;3740;50.700;7.184;2024-01-07T13:44:49;13.60;;;12.20;;
7398;SDS011;3740;50.700;7.184;2024-01-07T13:47:15;12.23;;;11.10;;
7398;SDS011;3740;50.700;7.184;2024-01-07T13:49:42;12.63;;;11.37;;
7398;SDS011;3740;50.700;7.184;2024-01-07T13:52:08;12.47;;;11.27;;
7398;SDS011;3740;50.700;7.184;2024-01-07T13:54:35;12.10;;;10.90;;
7398;SDS011;3740;50.700;7.184;2024-01-07T13:57:00;12.80;;;11.70;;
7398;SDS011;3740;50.700;7.184;2024-01-07T13:59:26;11.20;;;10.00;;
7398;SDS011;3740;50.700;7.184;2024-01-07T14:01:51;11.57;;;10.37;;
7398;SDS011;3740;50.700;7.184;2024-01-07T14:04:17;11.10;;;9.87;;
7398;SDS011;3740;50.700;7.184;2024-01-07T14:06:43;10.87;;;9.90;;
7398;SDS011;3740;50.700;7.184;2024-01-07T14:09:09;10.47;;;9.10;;
7398;SDS011;3740;50.700;7.184;2024-01-07T14:11:34;9.80;;;8.80;;
7398;SDS011;3740;50.700;7.184;2024-01-07T14:14:00;9.20;;;8.30;;
7398;SDS011;3740;50.700;7.184;2024-01-07T14:16:26;9.47;;;8.57;;
7398;SDS011;3740;50.700;7.184;2024-01-07T14:18:52;9.40;;;8.40;;
7398;SDS011;3740;50.700;7.184;2024-01-07T14:21:18;9.67;;;8.77;;
7398;SDS011;3740;50.700;7.184;2024-01-07T14:23:44;10.17;;;8.70;;
7398;SDS011;3740;50.700;7.184;2024-01-07T14:26:09;9.20;;;8.33;;
7398;SDS011;3740;50.700;7.184;2024-01-07T14:28:35;8.60;;;7.43;;
7398;SDS011;3740;50.700;7.184;2024-01-07T14:31:00;9.23;;;7.50;;
7398;SDS011;3740;50.700;7.184;2024-01-07T14:33:26;7.97;;;7.17;;
7398;SDS011;3740;50.700;7.184;2024-01-07T14:35:52;8.40;;;7.53;;
7398;SDS011;3740;50.700;7.184;2024-01-07T14:38:17;7.50;;;6.70;;
7398;SDS011;3740;50.700;7.184;2024-01-07T14:40:43;8.20;;;7.27;;
7398;SDS011;3740;50.700;7.184;2024-01-07T14:43:11;7.30;;;6.60;;
7398;SDS011;3740;50.700;7.184;2024-01-07T14:45:37;7.17;;;6.20;;
7398;SDS011;3740;50.700;7.184;2024-01-07T14:48:03;7.40;;;6.50;;
7398;SDS011;3740;50.700;7.184;2024-01-07T14:50:29;6.27;;;5.67;;